createdAt,value
2018-12-12T00:00:49.616Z,6.33
2018-12-12T00:03:18.202Z,6.55
2018-12-12T00:05:45.405Z,6.63
2018-12-12T00:08:13.274Z,6.57
2018-12-12T00:10:39.972Z,6.55
2018-12-12T00:13:08.030Z,6.74
2018-12-12T00:15:36.272Z,6.78
2018-12-12T00:18:03.486Z,6.78
2018-12-12T00:20:30.596Z,6.84
2018-12-12T00:22:57.623Z,6.82
2018-12-12T00:25:24.979Z,6.62
2018-12-12T00:27:52.081Z,6.71
2018-12-12T00:30:19.813Z,6.56
2018-12-12T00:32:46.265Z,6.64
2018-12-12T00:35:13.377Z,6.88
2018-12-12T00:37:40.683Z,6.52
2018-12-12T00:40:07.261Z,6.70
2018-12-12T00:42:33.694Z,6.71
2018-12-12T00:45:00.982Z,6.80
2018-12-12T00:47:28.174Z,7.07
2018-12-12T00:49:55.126Z,7.11
2018-12-12T00:52:21.929Z,6.80
2018-12-12T00:54:49.410Z,6.61
2018-12-12T00:57:16.004Z,6.79
2018-12-12T00:59:44.001Z,6.65
2018-12-12T01:02:13.157Z,6.70
2018-12-12T01:04:39.936Z,6.28
2018-12-12T01:07:07.372Z,6.24
2018-12-12T01:09:34.562Z,6.43
2018-12-12T01:12:01.830Z,6.60
2018-12-12T01:14:28.933Z,6.87
2018-12-12T01:16:56.110Z,7.02
2018-12-12T01:19:24.011Z,7.17
2018-12-12T01:21:51.866Z,7.11
2018-12-12T01:24:18.857Z,7.16
2018-12-12T01:26:45.997Z,7.32
2018-12-12T01:29:13.714Z,7.21
2018-12-12T01:34:13.591Z,7.56
2018-12-12T01:36:40.878Z,7.64
2018-12-12T01:39:08.269Z,7.39
2018-12-12T01:41:36.399Z,7.45
2018-12-12T01:44:04.656Z,7.34
2018-12-12T01:49:05.239Z,7.44
2018-12-12T01:51:33.869Z,7.43
2018-12-12T01:54:00.667Z,7.19
2018-12-12T01:56:28.446Z,7.37
2018-12-12T01:58:55.463Z,7.32
2018-12-12T02:01:27.107Z,7.20
2018-12-12T02:03:55.966Z,7.38
2018-12-12T02:06:23.669Z,7.11
2018-12-12T02:08:50.341Z,7.26
2018-12-12T02:24:25.541Z,7.40
2018-12-12T02:26:52.768Z,7.33
2018-12-12T02:29:19.875Z,7.42
2018-12-12T02:31:47.780Z,7.18
2018-12-12T02:34:14.928Z,7.19
2018-12-12T02:36:42.184Z,7.26
2018-12-12T02:39:11.121Z,7.21
2018-12-12T02:41:38.384Z,7.59
2018-12-12T02:44:05.469Z,7.55
2018-12-12T02:46:33.412Z,7.33
2018-12-12T02:49:01.119Z,7.31
2018-12-12T02:51:28.255Z,7.54
2018-12-12T02:53:55.275Z,7.47
2018-12-12T02:56:22.416Z,7.67
2018-12-12T02:58:49.502Z,7.77
2018-12-12T03:01:16.773Z,7.92
2018-12-12T03:03:43.790Z,7.66
2018-12-12T03:06:13.299Z,7.81
2018-12-12T03:08:41.322Z,7.98
2018-12-12T03:11:08.314Z,8.08
2018-12-12T03:13:35.555Z,8.08
2018-12-12T03:16:03.071Z,8.05
2018-12-12T03:18:30.204Z,7.75
2018-12-12T03:20:57.939Z,7.84
2018-12-12T03:23:25.056Z,7.76
2018-12-12T03:25:52.057Z,7.52
2018-12-12T03:28:19.988Z,7.59
2018-12-12T03:30:48.021Z,7.59
2018-12-12T03:33:15.899Z,7.50
2018-12-12T03:35:43.236Z,7.60
2018-12-12T03:38:11.455Z,7.45
2018-12-12T03:40:38.945Z,7.36
2018-12-12T03:43:06.184Z,7.07
2018-12-12T03:45:32.674Z,7.36
2018-12-12T03:47:59.723Z,7.33
2018-12-12T03:50:27.488Z,7.43
2018-12-12T03:52:54.048Z,7.51
2018-12-12T03:55:20.922Z,7.35
2018-12-12T03:57:47.383Z,7.54
2018-12-12T04:00:14.495Z,7.12
2018-12-12T04:02:41.714Z,7.34
2018-12-12T04:05:08.147Z,7.28
2018-12-12T04:07:35.550Z,7.24
2018-12-12T04:10:02.812Z,7.46
2018-12-12T04:12:30.088Z,7.59
2018-12-12T04:14:57.557Z,7.69
2018-12-12T04:17:25.726Z,7.82
2018-12-12T04:19:52.843Z,7.53
2018-12-12T04:22:24.208Z,7.49
2018-12-12T04:24:52.444Z,7.46
2018-12-12T04:27:21.788Z,7.78
2018-12-12T04:29:49.116Z,7.67
2018-12-12T04:32:15.877Z,7.53
2018-12-12T04:34:43.798Z,7.51
2018-12-12T04:37:11.936Z,7.86
2018-12-12T04:39:39.193Z,7.66
2018-12-12T04:42:07.930Z,7.95
2018-12-12T04:44:34.933Z,7.78
2018-12-12T04:47:02.343Z,7.76
2018-12-12T04:49:29.797Z,7.76
2018-12-12T04:51:57.576Z,7.53
2018-12-12T04:54:24.241Z,7.58
2018-12-12T04:56:52.225Z,7.37
2018-12-12T04:59:20.877Z,7.21
2018-12-12T05:01:48.996Z,7.33
2018-12-12T05:06:50.570Z,7.34
2018-12-12T05:09:17.824Z,7.35
2018-12-12T05:11:44.946Z,7.02
2018-12-12T05:14:12.909Z,7.11
2018-12-12T05:16:40.343Z,7.01
2018-12-12T05:19:07.861Z,7.10
2018-12-12T05:21:36.195Z,7.17
2018-12-12T05:24:03.594Z,7.43
2018-12-12T05:26:30.791Z,7.54
2018-12-12T05:28:59.696Z,7.62
2018-12-12T05:31:28.390Z,7.30
2018-12-12T05:33:55.545Z,6.88
2018-12-12T05:36:22.022Z,7.22
2018-12-12T05:38:50.997Z,7.25
2018-12-12T05:41:17.481Z,7.20
2018-12-12T05:43:45.690Z,7.25
2018-12-12T05:46:13.652Z,7.21
2018-12-12T05:48:40.601Z,7.24
2018-12-12T05:51:09.010Z,7.08
2018-12-12T05:53:36.007Z,7.39
2018-12-12T05:56:03.521Z,7.39
2018-12-12T05:58:30.086Z,7.54
2018-12-12T06:00:58.096Z,7.58
2018-12-12T06:03:24.550Z,7.54
2018-12-12T06:05:51.258Z,7.65
2018-12-12T06:08:20.328Z,7.75
2018-12-12T06:10:49.579Z,7.68
2018-12-12T06:13:16.787Z,7.72
2018-12-12T06:15:43.947Z,7.64
2018-12-12T06:18:11.881Z,7.73
2018-12-12T06:20:39.227Z,7.78
2018-12-12T06:23:07.201Z,7.69
2018-12-12T06:25:34.543Z,7.87
2018-12-12T06:28:03.004Z,7.65
2018-12-12T06:30:30.974Z,7.27
2018-12-12T06:32:58.932Z,7.50
2018-12-12T06:35:25.416Z,7.69
2018-12-12T06:37:53.306Z,7.60
2018-12-12T06:40:19.981Z,7.58
2018-12-12T06:42:48.186Z,7.74
2018-12-12T06:45:16.258Z,8.02
2018-12-12T06:47:43.315Z,7.81
2018-12-12T06:50:10.315Z,7.91
2018-12-12T06:52:38.079Z,7.91
2018-12-12T06:55:06.522Z,7.65
2018-12-12T06:57:34.805Z,7.67
2018-12-12T07:00:01.950Z,8.12
2018-12-12T07:02:28.400Z,8.15
2018-12-12T07:04:56.094Z,8.30
2018-12-12T07:07:24.580Z,8.27
2018-12-12T07:09:52.099Z,8.14
2018-12-12T07:12:19.777Z,8.51
2018-12-12T07:14:46.893Z,8.23
2018-12-12T07:17:14.738Z,8.05
2018-12-12T07:19:42.707Z,8.02
2018-12-12T07:22:09.958Z,8.19
2018-12-12T07:24:37.286Z,8.04
2018-12-12T07:27:03.873Z,7.88
2018-12-12T07:29:32.516Z,7.88
2018-12-12T07:31:59.549Z,7.75
2018-12-12T07:34:27.752Z,7.91
2018-12-12T07:36:55.520Z,8.36
2018-12-12T07:39:22.613Z,8.30
2018-12-12T07:41:50.058Z,8.17
2018-12-12T07:44:16.762Z,8.33
2018-12-12T07:46:44.678Z,8.38
2018-12-12T07:49:16.642Z,8.16
2018-12-12T07:51:45.192Z,8.04
2018-12-12T07:54:14.391Z,8.11
2018-12-12T07:56:42.124Z,8.51
2018-12-12T07:59:09.647Z,8.28
2018-12-12T08:01:36.939Z,8.27
2018-12-12T08:04:04.381Z,8.33
2018-12-12T08:06:32.488Z,8.43
2018-12-12T08:08:59.895Z,8.68
2018-12-12T08:11:27.955Z,8.71
2018-12-12T08:13:55.106Z,8.82
2018-12-12T08:16:23.691Z,8.94
2018-12-12T08:18:51.183Z,9.23
2018-12-12T08:21:17.860Z,9.30
2018-12-12T08:23:44.587Z,9.33
2018-12-12T08:26:13.814Z,8.93
2018-12-12T08:28:41.342Z,8.73
2018-12-12T08:31:08.520Z,9.03
2018-12-12T08:33:37.056Z,8.79
2018-12-12T08:36:05.674Z,8.89
2018-12-12T08:38:33.492Z,9.23
2018-12-12T08:41:01.714Z,9.19
2018-12-12T08:43:28.173Z,9.18
2018-12-12T08:45:55.549Z,8.92
2018-12-12T08:48:22.503Z,9.03
2018-12-12T08:50:50.882Z,8.98
2018-12-12T08:53:18.845Z,9.09
2018-12-12T08:55:46.222Z,9.18
2018-12-12T08:58:15.250Z,9.27
2018-12-12T09:00:43.192Z,9.29
2018-12-12T09:03:10.370Z,9.36
2018-12-12T09:05:37.666Z,9.39
2018-12-12T09:08:08.350Z,9.23
2018-12-12T09:10:37.282Z,9.36
2018-12-12T09:13:05.638Z,9.34
2018-12-12T09:15:33.120Z,9.30
2018-12-12T09:17:59.565Z,9.13
2018-12-12T09:20:27.424Z,9.32
2018-12-12T09:22:55.862Z,9.33
2018-12-12T09:25:22.865Z,9.62
2018-12-12T09:27:50.413Z,9.41
2018-12-12T09:30:19.348Z,9.40
2018-12-12T09:32:47.777Z,9.11
2018-12-12T09:35:15.519Z,9.46
2018-12-12T09:37:44.909Z,9.43
2018-12-12T09:40:12.759Z,9.66
2018-12-12T09:45:10.922Z,9.46
2018-12-12T09:47:37.384Z,9.15
2018-12-12T09:50:03.806Z,9.19
2018-12-12T09:52:30.257Z,9.44
2018-12-12T09:54:56.978Z,9.61
2018-12-12T09:57:23.405Z,9.69
2018-12-12T09:59:49.871Z,9.46
2018-12-12T10:02:16.450Z,9.18
2018-12-12T10:04:42.870Z,9.45
2018-12-12T10:07:09.343Z,9.70
2018-12-12T10:09:35.800Z,9.48
2018-12-12T10:12:02.229Z,9.21
2018-12-12T10:14:28.696Z,9.47
2018-12-12T10:16:55.140Z,9.45
2018-12-12T10:19:21.575Z,9.79
2018-12-12T10:21:48.078Z,9.94
2018-12-12T10:24:14.525Z,10.00
2018-12-12T10:26:40.964Z,10.53
2018-12-12T10:29:07.467Z,10.40
2018-12-12T10:31:33.928Z,10.75
2018-12-12T10:34:00.368Z,10.72
2018-12-12T10:36:26.825Z,10.61
2018-12-12T10:38:53.284Z,10.51
2018-12-12T10:41:19.742Z,10.40
2018-12-12T10:43:46.735Z,10.32
2018-12-12T10:46:13.187Z,10.52
2018-12-12T10:48:39.656Z,10.81
2018-12-12T10:51:06.141Z,10.50
2018-12-12T10:53:32.665Z,10.71
2018-12-12T10:55:59.345Z,10.77
2018-12-12T10:58:25.786Z,10.92
2018-12-12T11:00:52.220Z,10.57
2018-12-12T11:03:18.657Z,10.60
2018-12-12T11:05:45.172Z,10.71
2018-12-12T11:08:12.124Z,11.16
2018-12-12T11:10:39.224Z,11.05
2018-12-12T11:13:05.683Z,11.02
2018-12-12T11:15:32.128Z,11.15
2018-12-12T11:17:58.666Z,11.12
2018-12-12T11:20:25.132Z,10.61
2018-12-12T11:22:51.580Z,10.40
2018-12-12T11:25:18.039Z,10.83
2018-12-12T11:27:44.521Z,10.80
2018-12-12T11:30:10.977Z,10.32
2018-12-12T11:32:37.442Z,10.68
2018-12-12T11:35:03.920Z,10.81
2018-12-12T11:37:30.348Z,11.39
2018-12-12T11:39:56.816Z,11.38
2018-12-12T11:42:23.270Z,11.10
2018-12-12T11:44:49.714Z,11.15
2018-12-12T11:47:17.007Z,10.97
2018-12-12T11:49:43.498Z,11.31
2018-12-12T11:52:09.992Z,11.61
2018-12-12T11:54:36.449Z,11.09
2018-12-12T11:57:02.898Z,11.00
2018-12-12T11:59:29.384Z,10.95
2018-12-12T12:01:55.832Z,11.53
2018-12-12T12:04:22.279Z,11.71
2018-12-12T12:06:48.718Z,12.19
2018-12-12T12:09:15.199Z,11.92
2018-12-12T12:11:41.661Z,10.80
2018-12-12T12:14:08.100Z,10.98
2018-12-12T12:16:34.568Z,11.16
2018-12-12T12:19:01.019Z,10.81
2018-12-12T12:21:27.441Z,11.10
2018-12-12T12:23:53.880Z,11.26
2018-12-12T12:26:20.421Z,10.37
2018-12-12T12:28:47.346Z,10.55
2018-12-12T12:31:13.822Z,10.51
2018-12-12T12:33:40.274Z,10.62
2018-12-12T12:36:06.722Z,10.17
2018-12-12T12:38:33.153Z,10.19
2018-12-12T12:40:59.609Z,10.31
2018-12-12T12:43:26.066Z,10.01
2018-12-12T12:45:52.519Z,10.18
2018-12-12T12:48:19.307Z,10.53
2018-12-12T12:50:45.744Z,10.25
2018-12-12T12:53:12.181Z,9.63
2018-12-12T12:55:38.816Z,9.53
2018-12-12T12:58:05.274Z,9.73
2018-12-12T13:00:31.704Z,9.57
2018-12-12T13:02:58.170Z,9.02
2018-12-12T13:05:24.605Z,8.95
2018-12-12T13:07:51.038Z,8.69
2018-12-12T13:10:17.751Z,8.46
2018-12-12T13:12:44.243Z,9.27
2018-12-12T13:15:10.695Z,9.90
2018-12-12T13:17:37.191Z,10.23
2018-12-12T13:20:03.629Z,10.55
2018-12-12T13:22:30.059Z,10.70
2018-12-12T13:24:56.518Z,10.88
2018-12-12T13:27:22.957Z,10.93
2018-12-12T13:29:49.647Z,11.08
2018-12-12T13:32:16.119Z,11.12
2018-12-12T13:34:42.587Z,11.21
2018-12-12T13:37:09.043Z,11.03
2018-12-12T13:39:35.574Z,11.09
2018-12-12T13:42:02.016Z,11.03
2018-12-12T13:44:28.438Z,10.88
2018-12-12T13:46:54.888Z,10.65
2018-12-12T13:49:21.326Z,10.47
2018-12-12T13:51:48.055Z,10.40
2018-12-12T13:54:14.536Z,10.06
2018-12-12T13:56:41.025Z,10.04
2018-12-12T13:59:07.453Z,10.01
2018-12-12T14:01:33.918Z,10.27
2018-12-12T14:04:00.411Z,10.13
2018-12-12T14:06:27.779Z,9.96
2018-12-12T14:08:54.941Z,10.05
2018-12-12T14:11:21.676Z,10.26
2018-12-12T14:13:48.417Z,10.10
2018-12-12T14:16:14.943Z,10.08
2018-12-12T14:18:41.488Z,10.28
2018-12-12T14:21:08.453Z,9.73
2018-12-12T14:23:35.521Z,9.60
2018-12-12T14:26:01.978Z,9.86
2018-12-12T14:28:28.445Z,9.51
2018-12-12T14:30:55.549Z,9.64
2018-12-12T14:33:22.345Z,9.73
2018-12-12T14:35:48.796Z,9.83
2018-12-12T14:38:15.275Z,9.88
2018-12-12T14:40:41.704Z,9.73
2018-12-12T14:43:08.145Z,9.78
2018-12-12T14:45:34.649Z,9.80
2018-12-12T14:48:01.070Z,9.61
2018-12-12T14:50:27.535Z,9.47
2018-12-12T14:52:53.990Z,9.39
2018-12-12T14:55:20.428Z,9.10
2018-12-12T14:57:46.871Z,9.12
2018-12-12T15:00:13.342Z,9.22
2018-12-12T15:02:39.791Z,9.16
2018-12-12T15:05:06.304Z,9.21
2018-12-12T15:07:32.782Z,9.52
2018-12-12T15:09:59.213Z,9.39
2018-12-12T15:12:25.650Z,9.32
2018-12-12T15:14:52.156Z,9.22
2018-12-12T15:17:18.595Z,9.09
2018-12-12T15:19:45.020Z,9.02
2018-12-12T15:22:11.468Z,8.74
2018-12-12T15:24:37.889Z,8.76
2018-12-12T15:27:04.335Z,8.34
2018-12-12T15:29:30.770Z,8.77
2018-12-12T15:31:57.240Z,7.79
2018-12-12T15:34:23.699Z,8.13
2018-12-12T15:36:50.138Z,8.29
2018-12-12T15:39:16.678Z,7.90
2018-12-12T15:41:43.149Z,7.79
2018-12-12T15:44:09.639Z,7.47
2018-12-12T15:46:36.083Z,7.28
2018-12-12T15:49:02.522Z,7.65
2018-12-12T15:51:28.999Z,7.77
2018-12-12T15:53:55.438Z,7.62
2018-12-12T15:56:21.926Z,7.92
2018-12-12T15:58:48.927Z,7.84
2018-12-12T16:01:15.401Z,7.76
2018-12-12T16:03:41.854Z,7.95
2018-12-12T16:06:08.305Z,7.54
2018-12-12T16:08:34.738Z,8.10
2018-12-12T16:11:01.173Z,8.11
2018-12-12T16:13:27.667Z,8.28
2018-12-12T16:15:54.411Z,7.80
2018-12-12T16:18:20.888Z,7.29
2018-12-12T16:20:47.351Z,7.01
2018-12-12T16:23:13.824Z,6.58
2018-12-12T16:25:40.283Z,7.01
2018-12-12T16:28:06.767Z,7.11
2018-12-12T16:30:33.236Z,7.06
2018-12-12T16:33:00.217Z,7.15
2018-12-12T16:35:26.940Z,7.60
2018-12-12T16:37:53.584Z,7.04
2018-12-12T16:40:20.032Z,6.71
2018-12-12T16:42:46.512Z,6.57
2018-12-12T16:45:12.952Z,6.74
2018-12-12T16:47:39.395Z,7.30
2018-12-12T16:50:05.884Z,7.51
2018-12-12T16:52:32.349Z,7.25
2018-12-12T16:54:58.824Z,6.47
2018-12-12T16:57:25.295Z,7.00
2018-12-12T16:59:51.749Z,6.86
2018-12-12T17:02:19.252Z,6.98
2018-12-12T17:04:45.683Z,6.91
2018-12-12T17:07:12.099Z,6.88
2018-12-12T17:09:38.598Z,6.87
2018-12-12T17:12:05.321Z,6.88
2018-12-12T17:14:31.791Z,6.54
2018-12-12T17:16:58.220Z,6.39
2018-12-12T17:19:24.899Z,6.46
2018-12-12T17:21:51.413Z,6.75
2018-12-12T17:24:17.911Z,6.88
2018-12-12T17:26:44.371Z,6.73
2018-12-12T17:29:10.836Z,6.56
2018-12-12T17:31:37.267Z,6.21
2018-12-12T17:34:03.834Z,6.14
2018-12-12T17:36:30.252Z,6.33
2018-12-12T17:38:56.697Z,6.58
2018-12-12T17:41:23.149Z,6.92
2018-12-12T17:43:49.616Z,6.95
2018-12-12T17:46:16.069Z,7.46
2018-12-12T17:48:42.501Z,7.26
2018-12-12T17:51:08.964Z,7.06
2018-12-12T17:53:35.420Z,7.04
2018-12-12T17:56:01.875Z,7.15
2018-12-12T17:58:28.298Z,7.35
2018-12-12T18:00:54.737Z,7.35
2018-12-12T18:03:21.190Z,7.01
2018-12-12T18:05:47.656Z,6.91
2018-12-12T18:08:14.074Z,6.89
2018-12-12T18:10:40.560Z,6.95
2018-12-12T18:13:07.764Z,7.02
2018-12-12T18:15:34.199Z,6.82
2018-12-12T18:18:00.642Z,6.78
2018-12-12T18:20:27.112Z,6.87
2018-12-12T18:22:53.554Z,6.98
2018-12-12T18:25:20.011Z,6.84
2018-12-12T18:27:49.730Z,6.80
2018-12-12T18:30:19.972Z,6.57
2018-12-12T18:32:47.729Z,6.45
2018-12-12T18:35:21.646Z,6.50
2018-12-12T18:37:46.724Z,6.77
2018-12-12T18:40:13.791Z,6.83
2018-12-12T18:42:41.275Z,6.78
2018-12-12T18:45:09.333Z,6.53
2018-12-12T18:47:37.350Z,6.48
2018-12-12T18:50:04.365Z,6.74
2018-12-12T18:52:32.147Z,6.92
2018-12-12T18:55:00.399Z,7.03
2018-12-12T18:57:28.506Z,7.17
2018-12-12T18:59:56.096Z,6.85
2018-12-12T19:02:22.634Z,6.87
2018-12-12T19:04:51.144Z,6.83
2018-12-12T19:07:20.867Z,6.70
2018-12-12T19:12:28.583Z,6.44
2018-12-12T19:14:58.844Z,6.68
2018-12-12T19:19:58.819Z,6.42
2018-12-12T19:22:27.149Z,6.24
2018-12-12T19:24:55.266Z,6.47
2018-12-12T19:27:23.730Z,6.44
2018-12-12T19:29:52.026Z,6.20
2018-12-12T19:32:18.486Z,6.17
2018-12-12T19:34:49.880Z,6.40
2018-12-12T19:37:17.287Z,6.52
2018-12-12T19:39:43.954Z,6.75
2018-12-12T19:42:10.738Z,6.69
2018-12-12T19:44:38.072Z,6.71
2018-12-12T19:47:05.911Z,6.43
2018-12-12T19:49:33.054Z,6.23
2018-12-12T19:52:01.381Z,6.10
2018-12-12T19:54:29.988Z,6.08
2018-12-12T19:56:57.106Z,5.98
2018-12-12T19:59:25.146Z,5.86
2018-12-12T20:01:53.086Z,6.13
2018-12-12T20:04:21.854Z,6.26
2018-12-12T20:06:48.847Z,6.17
2018-12-12T20:09:16.319Z,6.08
2018-12-12T20:11:44.518Z,6.28
2018-12-12T20:14:11.864Z,6.11
2018-12-12T20:16:40.509Z,5.60
2018-12-12T20:19:08.413Z,5.39
2018-12-12T20:21:36.325Z,4.83
2018-12-12T20:24:03.812Z,4.67
2018-12-12T20:26:31.801Z,5.34
2018-12-12T20:28:58.700Z,5.60
2018-12-12T20:31:25.939Z,5.62
2018-12-12T20:33:52.747Z,5.57
2018-12-12T20:36:21.751Z,5.24
2018-12-12T20:38:49.950Z,5.17
2018-12-12T20:41:17.578Z,5.29
2018-12-12T20:43:44.265Z,5.33
2018-12-12T20:46:11.882Z,5.43
2018-12-12T20:48:39.767Z,5.54
2018-12-12T20:51:07.914Z,5.19
2018-12-12T20:53:35.545Z,5.12
2018-12-12T20:56:03.418Z,5.09
2018-12-12T20:58:31.443Z,5.06
2018-12-12T21:00:59.314Z,5.07
2018-12-12T21:03:26.126Z,5.14
2018-12-12T21:05:54.844Z,5.15
2018-12-12T21:08:24.044Z,5.05
2018-12-12T21:10:51.430Z,4.96
2018-12-12T21:13:17.870Z,4.95
2018-12-12T21:15:45.328Z,4.91
2018-12-12T21:18:13.254Z,4.73
2018-12-12T21:20:40.394Z,4.83
2018-12-12T21:23:08.101Z,4.88
2018-12-12T21:25:36.206Z,4.98
2018-12-12T21:28:03.674Z,5.08
2018-12-12T21:30:31.288Z,4.94
2018-12-12T21:32:59.383Z,5.04
2018-12-12T21:35:27.402Z,5.04
2018-12-12T21:37:54.516Z,4.98
2018-12-12T21:40:22.695Z,4.73
2018-12-12T21:42:51.775Z,4.31
2018-12-12T21:52:57.235Z,4.47
2018-12-12T21:55:24.234Z,4.62
2018-12-12T21:57:52.965Z,4.87
2018-12-12T22:00:19.423Z,4.88
2018-12-12T22:02:47.214Z,4.66
2018-12-12T22:05:14.596Z,4.61
2018-12-12T22:07:41.570Z,4.56
2018-12-12T22:10:08.917Z,4.91
2018-12-12T22:12:35.382Z,4.99
2018-12-12T22:15:03.348Z,5.02
2018-12-12T22:17:32.914Z,5.07
2018-12-12T22:20:01.735Z,5.07
2018-12-12T22:22:29.968Z,5.16
2018-12-12T22:24:56.928Z,5.22
2018-12-12T22:27:24.095Z,5.28
2018-12-12T22:29:52.477Z,5.43
2018-12-12T22:32:20.163Z,5.46
2018-12-12T22:34:47.208Z,5.48
2018-12-12T22:37:14.578Z,5.52
2018-12-12T22:39:41.286Z,5.75
2018-12-12T22:42:09.941Z,5.70
2018-12-12T22:44:36.907Z,5.80
2018-12-12T22:47:04.629Z,5.80
2018-12-12T22:49:32.807Z,5.78
2018-12-12T22:52:00.408Z,5.37
2018-12-12T22:54:28.136Z,5.31
2018-12-12T22:56:54.621Z,5.30
2018-12-12T22:59:23.471Z,5.39
2018-12-12T23:01:54.489Z,5.45
2018-12-12T23:04:22.106Z,5.49
2018-12-12T23:06:49.350Z,5.63
2018-12-12T23:09:15.794Z,5.55
2018-12-12T23:11:44.059Z,5.49
2018-12-12T23:14:11.292Z,5.57
2018-12-12T23:16:38.668Z,5.52
2018-12-12T23:19:05.970Z,5.48
2018-12-12T23:21:35.534Z,5.48
2018-12-12T23:24:03.066Z,5.50
2018-12-12T23:26:30.431Z,5.41
2018-12-12T23:28:59.067Z,5.34
2018-12-12T23:31:27.807Z,5.61
2018-12-12T23:33:55.595Z,5.78
2018-12-12T23:36:27.026Z,5.97
2018-12-12T23:38:54.277Z,5.93
2018-12-12T23:41:22.792Z,6.00
2018-12-12T23:43:50.046Z,6.21
2018-12-12T23:46:18.511Z,6.18
2018-12-12T23:48:46.242Z,6.29
2018-12-12T23:51:12.921Z,5.94
2018-12-12T23:53:41.024Z,5.79
2018-12-12T23:56:08.553Z,5.64
2018-12-12T23:58:36.772Z,5.65
